Weather reports worldwide

Advertisment
S. Valentino Alla Muta, Italy (16008): temperature & dewpoint: 06.12.2019 11:00:00 - 12.12.2019 11:00:00 (CET)S. Valentino Alla Muta, Italy (16008): wind speed: 06.12.2019 11:00:00 - 12.12.2019 11:00:00 (CET)S. Valentino Alla Muta, Italy (16008): wind direction: 06.12.2019 11:00:00 - 12.12.2019 11:00:00 (CET)S. Valentino Alla Muta, Italy (16008): visibility: 06.12.2019 11:00:00 - 12.12.2019 11:00:00 (CET)
Date & Time tt [°C] td [°C] ff [km/h] ff [kn] dd vv [km]
12.12.2019 11:00:00 -1,8 -3,5 13 7 NNE 7
12.12.2019 10:00:00 -1,8 -4,3 15 8 NNE 6
12.12.2019 09:00:00 -2,0 -4,3 9 5 NNE 8
12.12.2019 08:00:00 -2,0 -4,6 9 5 N 8
12.12.2019 07:00:00 -2,0 -3,4 8 4 NE 8
12.12.2019 06:00:00 -2,0 -3,4 8 4 NE 8
12.12.2019 05:00:00 -1,8 -5,5 8 4 NNE 10
12.12.2019 04:00:00 -1,8 -5,5 5 3 NNE 10
12.12.2019 03:00:00 -2,4 -6,2 5 3 NE 10
12.12.2019 02:00:00 -2,4 -6,2 8 4 NE 10
12.12.2019 01:00:00 -2,6 -7,3 8 4 NNE 10
12.12.2019 00:00:00 -2,8 -8,6 5 3 NNE 10
11.12.2019 23:00:00 -2,8 -8,6 5 3 N 10
11.12.2019 22:00:00 -3,0 -9,3 0 0 N 10
11.12.2019 21:00:00 -3,2 -10,1 0 0 N 10
11.12.2019 20:00:00 -3,2 -10,3 0 0 N 10
11.12.2019 19:00:00 -3,2 -9,4 0 0 N 10
11.12.2019 18:00:00 -3,2 -9,0 0 0 N 12
11.12.2019 17:00:00 -3,2 -9,4 0 0 N 15
11.12.2019 16:00:00 -3,0 -10,8 4 2 SE 18
11.12.2019 15:00:00 -2,4 -9,8 9 5 SW 20
11.12.2019 14:00:00 -2,0 -8,7 9 5 SW 16
11.12.2019 13:00:00 0,4 -8,1 4 2 NNW 18
11.12.2019 12:00:00 -0,2 -8,4 9 5 NNE 20
11.12.2019 11:00:00 -0,8 -8,9 11 6 NNE 20
11.12.2019 10:00:00 -3,8 -9,0 11 6 NNE 20
11.12.2019 09:00:00 -5,6 -9,7 13 7 NNE 15
11.12.2019 08:00:00 -5,6 -9,5 15 8 NNE 15
11.12.2019 07:00:00 -6,4 -10,1 18 10 NNE 15
11.12.2019 06:00:00 -6,4 -10,1 13 7 NNE 12
11.12.2019 05:00:00 -6,4 -9,9 16 9 NNE 10
11.12.2019 04:00:00 -6,4 -10,1 16 9 NNE 10
11.12.2019 03:00:00 -6,2 -9,4 15 8 NNE 10
11.12.2019 02:00:00 -6,2 -9,7 18 10 N 10
11.12.2019 01:00:00 -6,4 -11,0 21 11 N 12
11.12.2019 00:00:00 -6,4 -11,0 18 10 NNE 10
10.12.2019 23:00:00 -6,4 -10,8 16 9 N 10
10.12.2019 22:00:00 -6,0 -9,5 15 8 N 10
10.12.2019 21:00:00 -5,8 -9,3 8 4 NNE 10
10.12.2019 20:00:00 -5,4 -8,8 21 11 NNE 12
10.12.2019 19:00:00 -4,8 -8,7 18 10 NNE 12
10.12.2019 18:00:00 -4,4 -8,5 16 9 NE 10
10.12.2019 17:00:00 -3,4 -9,0 26 14 ENE 10
10.12.2019 16:00:00 -2,6 -12,1 18 10 NE 10
10.12.2019 15:00:00 -1,4 -11,0 24 13 N 12
10.12.2019 14:00:00 -1,2 -10,3 16 9 N 15
10.12.2019 13:00:00 -1,4 -10,5 22 12 N 10
10.12.2019 12:00:00 -2,0 -8,1 21 11 N 10
10.12.2019 11:00:00 -2,4 -7,7 18 10 N 10
10.12.2019 10:00:00 -2,4 -6,7 16 9 N 10
10.12.2019 09:00:00 -2,2 -6,2 15 8 N 18
10.12.2019 08:00:00 -1,8 -5,8 13 7 N 15
10.12.2019 07:00:00 -1,6 -4,9 11 6 N 10
10.12.2019 06:00:00 -1,4 -4,4 11 6 NNE 10
10.12.2019 05:00:00 -1,4 -4,4 9 5 NNE 10
10.12.2019 04:00:00 -1,4 -1,7 11 6 NE 10
10.12.2019 03:00:00 -1,4 -1,8 9 5 NE 10
10.12.2019 02:00:00 - - - - - -
10.12.2019 01:00:00 -1,0 -1,4 8 4 NNE 10
10.12.2019 00:00:00 -0,8 -0,9 8 4 NNE 10
09.12.2019 23:00:00 -0,8 -1,1 9 5 NE 10
09.12.2019 22:00:00 -0,4 -0,4 0 0 N 6
09.12.2019 21:00:00 -0,2 -0,2 0 0 N 8
09.12.2019 20:00:00 0,4 -1,0 9 5 NNE 10
09.12.2019 19:00:00 0,8 -2,1 4 2 NNE 10
09.12.2019 18:00:00 1,8 -2,3 0 0 N 15
09.12.2019 17:00:00 1,8 -2,5 8 4 N 18
09.12.2019 16:00:00 2,4 -2,1 8 4 NNE 20
09.12.2019 15:00:00 2,8 -1,7 5 3 W 20
09.12.2019 14:00:00 3,2 -1,5 4 2 SW 20
09.12.2019 13:00:00 3,8 -1,5 5 3 SW 20
09.12.2019 12:00:00 3,4 -1,9 5 3 N 18
09.12.2019 11:00:00 2,0 -2,9 8 4 N 20
09.12.2019 10:00:00 -1,0 -2,7 5 3 NNE 10
09.12.2019 09:00:00 -1,8 -2,5 5 3 NNE 10
09.12.2019 08:00:00 -1,6 -3,0 5 3 NE 12
09.12.2019 07:00:00 -1,2 -3,1 0 0 N 10
09.12.2019 06:00:00 -1,2 -3,4 4 2 SE 10
09.12.2019 05:00:00 -1,0 -4,0 4 2 ESE 10
09.12.2019 04:00:00 -1,0 -4,4 5 3 E 10
09.12.2019 03:00:00 -1,0 -4,0 4 2 ESE 10
09.12.2019 02:00:00 -1,6 -5,1 4 2 ESE 10
09.12.2019 01:00:00 -2,0 -5,5 4 2 E 10
09.12.2019 00:00:00 -3,2 -6,2 4 2 SW 10
08.12.2019 23:00:00 -3,4 -6,0 8 4 NNE 10
08.12.2019 22:00:00 -3,4 -6,3 0 0 N 10
08.12.2019 21:00:00 -3,0 -6,1 0 0 N 10
08.12.2019 20:00:00 -2,4 -5,9 0 0 N 10
08.12.2019 19:00:00 -1,4 -5,4 0 0 N 10
08.12.2019 18:00:00 -0,4 -5,2 0 0 N 12
08.12.2019 17:00:00 0,6 -5,6 0 0 N 20
08.12.2019 16:00:00 2,2 -5,2 5 3 SSW 20
08.12.2019 15:00:00 3,0 -5,4 8 4 SW 20
08.12.2019 14:00:00 3,8 -6,5 4 2 SW 20
08.12.2019 13:00:00 4,0 -7,4 0 0 N 20
08.12.2019 12:00:00 3,2 -6,7 0 0 N 20
08.12.2019 11:00:00 0,6 -6,3 0 0 N 20
08.12.2019 10:00:00 -2,6 -7,3 0 0 N 20
08.12.2019 09:00:00 -3,0 -6,6 5 3 NNE 20
08.12.2019 08:00:00 -3,0 -6,5 11 6 NNE 20
08.12.2019 07:00:00 -2,6 -6,1 8 4 NNE 14
08.12.2019 06:00:00 -2,4 -6,2 9 5 NNE 12
08.12.2019 05:00:00 -2,0 -5,3 9 5 NNE 12
08.12.2019 04:00:00 -1,4 -4,6 9 5 NNE 12
08.12.2019 03:00:00 -1,4 -4,7 11 6 NNE 12
08.12.2019 02:00:00 -1,4 -4,6 9 5 NNE 12
08.12.2019 01:00:00 -0,8 -4,5 5 3 N 10
08.12.2019 00:00:00 -1,0 -5,0 9 5 NNE 12
07.12.2019 23:00:00 -0,6 -4,6 9 5 NNE 12
07.12.2019 22:00:00 -0,6 -4,8 5 3 NNE 12
07.12.2019 21:00:00 -0,2 -5,0 5 3 NNE 12
07.12.2019 20:00:00 0,4 -4,4 8 4 NNE 12
07.12.2019 19:00:00 1,4 -4,0 5 3 NNE 12
07.12.2019 18:00:00 1,8 -3,9 5 3 NNE 12
07.12.2019 17:00:00 2,8 -3,3 8 4 NNE 14
07.12.2019 16:00:00 4,2 -3,5 5 3 NNE 20
07.12.2019 15:00:00 6,0 -2,8 5 3 N 20
07.12.2019 14:00:00 5,8 -4,6 9 5 NNE 20
07.12.2019 13:00:00 5,0 -2,8 8 4 N 20
07.12.2019 12:00:00 4,6 -3,2 8 4 N 20
07.12.2019 11:00:00 3,0 -3,1 9 5 NNE 20
07.12.2019 10:00:00 1,0 -3,1 8 4 N 20
07.12.2019 09:00:00 0,2 -2,8 8 4 N 20
07.12.2019 08:00:00 -0,2 -3,6 8 4 N 20
07.12.2019 07:00:00 -0,6 -4,3 8 4 N 12
07.12.2019 06:00:00 -1,0 -5,0 8 4 N 10
07.12.2019 05:00:00 -2,0 -6,4 9 5 NNE 10
07.12.2019 04:00:00 -2,6 -7,3 8 4 NE 10
07.12.2019 03:00:00 -3,0 -7,2 4 2 NNE 10
07.12.2019 02:00:00 -3,2 -7,5 5 3 NE 10
07.12.2019 01:00:00 -3,4 -7,7 8 4 NNE 10
07.12.2019 00:00:00 -3,6 -7,9 5 3 NNE 10
06.12.2019 23:00:00 -3,6 -8,1 8 4 NNE 10
06.12.2019 22:00:00 -4,0 -8,3 9 5 NNE 10
06.12.2019 21:00:00 -4,0 -8,3 4 2 NNE 10
06.12.2019 20:00:00 -3,8 -7,9 4 2 NNE 12
06.12.2019 19:00:00 -3,0 -7,3 0 0 N 12
06.12.2019 18:00:00 -2,6 -7,5 5 3 NNE 15
06.12.2019 17:00:00 -1,6 -6,9 0 0 N 20
06.12.2019 16:00:00 0,8 -6,1 0 0 N 30
06.12.2019 15:00:00 1,6 -6,2 0 0 N 20
06.12.2019 14:00:00 3,4 -5,5 4 2 SSW 30
06.12.2019 13:00:00 3,2 -7,3 5 3 N 30
06.12.2019 12:00:00 2,2 -6,9 8 4 NNE 30
06.12.2019 11:00:00 1,4 -7,1 9 5 NNE 30

tt = temperature
td = dewpoint
ff = wind speed
dd = wind direction
vv = visibility

Next stations